sensor_id;sensor_type;location;lat;lon;timestamp;temperature;humidity
16174;DHT22;14031;50.158;8.626;2023-10-31T00:00:53;13.90;99.90
16174;DHT22;14031;50.158;8.626;2023-10-31T00:03:20;13.90;99.90
16174;DHT22;14031;50.158;8.626;2023-10-31T00:05:47;13.90;99.90
16174;DHT22;14031;50.158;8.626;2023-10-31T00:08:15;13.80;99.90
16174;DHT22;14031;50.158;8.626;2023-10-31T00:10:42;13.80;99.90
16174;DHT22;14031;50.158;8.626;2023-10-31T00:13:10;13.80;99.90
16174;DHT22;14031;50.158;8.626;2023-10-31T00:15:37;13.80;99.90
16174;DHT22;14031;50.158;8.626;2023-10-31T00:18:04;13.80;99.90
16174;DHT22;14031;50.158;8.626;2023-10-31T00:20:31;13.90;99.90
16174;DHT22;14031;50.158;8.626;2023-10-31T00:22:58;13.80;99.90
16174;DHT22;14031;50.158;8.626;2023-10-31T00:25:26;13.80;99.90
16174;DHT22;14031;50.158;8.626;2023-10-31T00:27:52;13.80;99.90
16174;DHT22;14031;50.158;8.626;2023-10-31T00:30:19;13.80;99.90
16174;DHT22;14031;50.158;8.626;2023-10-31T00:32:46;13.80;99.90
16174;DHT22;14031;50.158;8.626;2023-10-31T00:35:13;13.80;99.90
16174;DHT22;14031;50.158;8.626;2023-10-31T00:37:40;13.70;99.90
16174;DHT22;14031;50.158;8.626;2023-10-31T00:40:08;13.70;99.90
16174;DHT22;14031;50.158;8.626;2023-10-31T00:42:37;13.70;99.90
16174;DHT22;14031;50.158;8.626;2023-10-31T00:45:07;13.60;99.90
16174;DHT22;14031;50.158;8.626;2023-10-31T00:47:34;13.60;99.90
16174;DHT22;14031;50.158;8.626;2023-10-31T00:50:00;13.60;99.90
16174;DHT22;14031;50.158;8.626;2023-10-31T00:52:27;13.60;99.90
16174;DHT22;14031;50.158;8.626;2023-10-31T00:54:54;13.60;99.90
16174;DHT22;14031;50.158;8.626;2023-10-31T00:57:20;13.60;99.90
16174;DHT22;14031;50.158;8.626;2023-10-31T00:59:49;13.60;99.90
16174;DHT22;14031;50.158;8.626;2023-10-31T01:02:15;13.60;99.90
16174;DHT22;14031;50.158;8.626;2023-10-31T01:04:42;13.50;99.90
16174;DHT22;14031;50.158;8.626;2023-10-31T01:07:09;13.50;99.90
16174;DHT22;14031;50.158;8.626;2023-10-31T01:09:37;13.60;99.90
16174;DHT22;14031;50.158;8.626;2023-10-31T01:12:05;13.50;99.90
16174;DHT22;14031;50.158;8.626;2023-10-31T01:14:32;13.50;99.90
16174;DHT22;14031;50.158;8.626;2023-10-31T01:17:01;13.50;99.90
16174;DHT22;14031;50.158;8.626;2023-10-31T01:19:28;13.50;99.90
16174;DHT22;14031;50.158;8.626;2023-10-31T01:21:55;13.50;99.90
16174;DHT22;14031;50.158;8.626;2023-10-31T01:24:22;13.50;99.90
16174;DHT22;14031;50.158;8.626;2023-10-31T01:26:48;13.50;99.90
16174;DHT22;14031;50.158;8.626;2023-10-31T01:29:15;13.50;99.90
16174;DHT22;14031;50.158;8.626;2023-10-31T01:31:42;13.50;99.90
16174;DHT22;14031;50.158;8.626;2023-10-31T01:34:10;13.40;99.90
16174;DHT22;14031;50.158;8.626;2023-10-31T01:36:37;13.40;99.90
16174;DHT22;14031;50.158;8.626;2023-10-31T01:39:04;13.40;99.90
16174;DHT22;14031;50.158;8.626;2023-10-31T01:41:30;13.40;99.90
16174;DHT22;14031;50.158;8.626;2023-10-31T01:43:57;13.40;99.90
16174;DHT22;14031;50.158;8.626;2023-10-31T01:46:24;13.30;99.90
16174;DHT22;14031;50.158;8.626;2023-10-31T01:48:51;13.30;99.90
16174;DHT22;14031;50.158;8.626;2023-10-31T01:51:19;13.30;99.90
16174;DHT22;14031;50.158;8.626;2023-10-31T01:53:47;13.30;99.90
16174;DHT22;14031;50.158;8.626;2023-10-31T01:56:14;13.20;99.90
16174;DHT22;14031;50.158;8.626;2023-10-31T01:58:41;13.20;99.90
16174;DHT22;14031;50.158;8.626;2023-10-31T02:01:08;13.10;99.90
16174;DHT22;14031;50.158;8.626;2023-10-31T02:03:35;13.10;99.90
16174;DHT22;14031;50.158;8.626;2023-10-31T02:06:04;13.20;99.90
16174;DHT22;14031;50.158;8.626;2023-10-31T02:08:32;13.10;99.90
16174;DHT22;14031;50.158;8.626;2023-10-31T02:10:59;13.10;99.90
16174;DHT22;14031;50.158;8.626;2023-10-31T02:13:26;13.20;99.90
16174;DHT22;14031;50.158;8.626;2023-10-31T02:15:53;13.10;99.90
16174;DHT22;14031;50.158;8.626;2023-10-31T02:18:19;13.10;99.90
16174;DHT22;14031;50.158;8.626;2023-10-31T02:20:46;13.10;99.90
16174;DHT22;14031;50.158;8.626;2023-10-31T02:23:16;13.10;99.90
16174;DHT22;14031;50.158;8.626;2023-10-31T02:25:43;13.10;99.90
16174;DHT22;14031;50.158;8.626;2023-10-31T02:28:10;13.10;99.90
16174;DHT22;14031;50.158;8.626;2023-10-31T02:30:37;13.10;99.90
16174;DHT22;14031;50.158;8.626;2023-10-31T02:33:03;13.10;99.90
16174;DHT22;14031;50.158;8.626;2023-10-31T02:35:30;13.10;99.90
16174;DHT22;14031;50.158;8.626;2023-10-31T02:37:58;13.00;99.90
16174;DHT22;14031;50.158;8.626;2023-10-31T02:40:26;13.00;99.90
16174;DHT22;14031;50.158;8.626;2023-10-31T02:42:52;12.90;99.90
16174;DHT22;14031;50.158;8.626;2023-10-31T02:45:19;13.00;99.90
16174;DHT22;14031;50.158;8.626;2023-10-31T02:47:46;12.90;99.90
16174;DHT22;14031;50.158;8.626;2023-10-31T02:50:13;12.90;99.90
16174;DHT22;14031;50.158;8.626;2023-10-31T02:52:39;12.80;99.90
16174;DHT22;14031;50.158;8.626;2023-10-31T02:55:07;12.80;99.90
16174;DHT22;14031;50.158;8.626;2023-10-31T02:57:35;12.80;99.90
16174;DHT22;14031;50.158;8.626;2023-10-31T03:00:02;12.70;99.90
16174;DHT22;14031;50.158;8.626;2023-10-31T03:02:28;12.70;99.90
16174;DHT22;14031;50.158;8.626;2023-10-31T03:04:56;12.70;99.90
16174;DHT22;14031;50.158;8.626;2023-10-31T03:07:23;12.70;99.90
16174;DHT22;14031;50.158;8.626;2023-10-31T03:09:49;12.60;99.90
16174;DHT22;14031;50.158;8.626;2023-10-31T03:12:16;12.60;99.90
16174;DHT22;14031;50.158;8.626;2023-10-31T03:14:44;12.60;99.90
16174;DHT22;14031;50.158;8.626;2023-10-31T03:17:11;12.60;99.90
16174;DHT22;14031;50.158;8.626;2023-10-31T03:19:38;12.50;99.90
16174;DHT22;14031;50.158;8.626;2023-10-31T03:22:04;12.50;99.90
16174;DHT22;14031;50.158;8.626;2023-10-31T03:24:32;12.60;99.90
16174;DHT22;14031;50.158;8.626;2023-10-31T03:26:58;12.50;99.90
16174;DHT22;14031;50.158;8.626;2023-10-31T03:29:25;12.50;99.90
16174;DHT22;14031;50.158;8.626;2023-10-31T03:31:53;12.30;99.90
16174;DHT22;14031;50.158;8.626;2023-10-31T03:34:20;12.40;99.90
16174;DHT22;14031;50.158;8.626;2023-10-31T03:36:46;12.40;99.90
16174;DHT22;14031;50.158;8.626;2023-10-31T03:39:13;12.40;99.90
16174;DHT22;14031;50.158;8.626;2023-10-31T03:41:40;12.40;99.90
16174;DHT22;14031;50.158;8.626;2023-10-31T03:44:08;12.40;99.90
16174;DHT22;14031;50.158;8.626;2023-10-31T03:46:34;12.40;99.90
16174;DHT22;14031;50.158;8.626;2023-10-31T03:49:02;12.40;99.90
16174;DHT22;14031;50.158;8.626;2023-10-31T03:51:29;12.40;99.90
16174;DHT22;14031;50.158;8.626;2023-10-31T03:53:56;12.40;99.90
16174;DHT22;14031;50.158;8.626;2023-10-31T03:56:23;12.40;99.90
16174;DHT22;14031;50.158;8.626;2023-10-31T03:58:49;12.40;99.90
16174;DHT22;14031;50.158;8.626;2023-10-31T04:01:16;12.40;99.90
16174;DHT22;14031;50.158;8.626;2023-10-31T04:03:43;12.40;99.90
16174;DHT22;14031;50.158;8.626;2023-10-31T04:06:12;12.50;99.90
16174;DHT22;14031;50.158;8.626;2023-10-31T04:08:38;12.50;99.90
16174;DHT22;14031;50.158;8.626;2023-10-31T04:11:06;12.50;99.90
16174;DHT22;14031;50.158;8.626;2023-10-31T04:13:33;12.40;99.90
16174;DHT22;14031;50.158;8.626;2023-10-31T04:15:59;12.50;99.90
16174;DHT22;14031;50.158;8.626;2023-10-31T04:18:26;12.40;99.90
16174;DHT22;14031;50.158;8.626;2023-10-31T04:20:53;12.50;99.90
16174;DHT22;14031;50.158;8.626;2023-10-31T04:23:21;12.40;99.90
16174;DHT22;14031;50.158;8.626;2023-10-31T04:25:48;12.40;99.90
16174;DHT22;14031;50.158;8.626;2023-10-31T04:28:14;12.40;99.90
16174;DHT22;14031;50.158;8.626;2023-10-31T04:30:41;12.50;99.90
16174;DHT22;14031;50.158;8.626;2023-10-31T04:33:08;12.50;99.90
16174;DHT22;14031;50.158;8.626;2023-10-31T04:35:34;12.50;99.90
16174;DHT22;14031;50.158;8.626;2023-10-31T04:38:01;12.50;99.90
16174;DHT22;14031;50.158;8.626;2023-10-31T04:40:29;12.50;99.90
16174;DHT22;14031;50.158;8.626;2023-10-31T04:42:56;12.50;99.90
16174;DHT22;14031;50.158;8.626;2023-10-31T04:45:23;12.50;99.90
16174;DHT22;14031;50.158;8.626;2023-10-31T04:47:50;12.50;99.90
16174;DHT22;14031;50.158;8.626;2023-10-31T04:50:16;12.50;99.90
16174;DHT22;14031;50.158;8.626;2023-10-31T04:52:43;12.40;99.90
16174;DHT22;14031;50.158;8.626;2023-10-31T04:55:10;12.40;99.90
16174;DHT22;14031;50.158;8.626;2023-10-31T04:57:38;12.40;99.90
16174;DHT22;14031;50.158;8.626;2023-10-31T05:00:06;12.40;99.90
16174;DHT22;14031;50.158;8.626;2023-10-31T05:02:34;12.40;99.90
16174;DHT22;14031;50.158;8.626;2023-10-31T05:05:00;12.40;99.90
16174;DHT22;14031;50.158;8.626;2023-10-31T05:07:27;12.40;99.90
16174;DHT22;14031;50.158;8.626;2023-10-31T05:09:54;12.30;99.90
16174;DHT22;14031;50.158;8.626;2023-10-31T05:12:21;12.30;99.90
16174;DHT22;14031;50.158;8.626;2023-10-31T05:14:49;12.40;99.90
16174;DHT22;14031;50.158;8.626;2023-10-31T05:17:16;12.40;99.90
16174;DHT22;14031;50.158;8.626;2023-10-31T05:19:42;12.40;99.90
16174;DHT22;14031;50.158;8.626;2023-10-31T05:22:09;12.30;99.90
16174;DHT22;14031;50.158;8.626;2023-10-31T05:24:36;12.30;99.90
16174;DHT22;14031;50.158;8.626;2023-10-31T05:27:03;12.30;99.90
16174;DHT22;14031;50.158;8.626;2023-10-31T05:29:32;12.40;99.90
16174;DHT22;14031;50.158;8.626;2023-10-31T05:32:01;12.40;99.90
16174;DHT22;14031;50.158;8.626;2023-10-31T05:34:28;12.40;99.90
16174;DHT22;14031;50.158;8.626;2023-10-31T05:36:54;12.30;99.90
16174;DHT22;14031;50.158;8.626;2023-10-31T05:39:21;12.30;99.90
16174;DHT22;14031;50.158;8.626;2023-10-31T05:41:48;12.40;99.90
16174;DHT22;14031;50.158;8.626;2023-10-31T05:44:15;12.40;99.90
16174;DHT22;14031;50.158;8.626;2023-10-31T05:46:41;12.40;99.90
16174;DHT22;14031;50.158;8.626;2023-10-31T05:49:10;12.40;99.90
16174;DHT22;14031;50.158;8.626;2023-10-31T05:51:36;12.40;99.90
16174;DHT22;14031;50.158;8.626;2023-10-31T05:54:06;12.60;99.90
16174;DHT22;14031;50.158;8.626;2023-10-31T05:56:33;12.60;99.90
16174;DHT22;14031;50.158;8.626;2023-10-31T05:59:00;12.70;99.90
16174;DHT22;14031;50.158;8.626;2023-10-31T06:01:27;12.80;99.90
16174;DHT22;14031;50.158;8.626;2023-10-31T06:03:54;12.80;99.90
16174;DHT22;14031;50.158;8.626;2023-10-31T06:06:22;12.70;99.90
16174;DHT22;14031;50.158;8.626;2023-10-31T06:08:49;12.60;99.90
16174;DHT22;14031;50.158;8.626;2023-10-31T06:11:15;12.60;99.90
16174;DHT22;14031;50.158;8.626;2023-10-31T06:13:42;12.60;99.90
16174;DHT22;14031;50.158;8.626;2023-10-31T06:16:09;12.70;99.90
16174;DHT22;14031;50.158;8.626;2023-10-31T06:18:38;12.50;99.90
16174;DHT22;14031;50.158;8.626;2023-10-31T06:21:05;12.50;99.90
16174;DHT22;14031;50.158;8.626;2023-10-31T06:23:34;12.50;99.90
16174;DHT22;14031;50.158;8.626;2023-10-31T06:26:01;12.50;99.90
16174;DHT22;14031;50.158;8.626;2023-10-31T06:28:28;12.40;99.90
16174;DHT22;14031;50.158;8.626;2023-10-31T06:30:54;12.40;99.90
16174;DHT22;14031;50.158;8.626;2023-10-31T06:33:21;12.40;99.90
16174;DHT22;14031;50.158;8.626;2023-10-31T06:35:48;12.40;99.90
16174;DHT22;14031;50.158;8.626;2023-10-31T06:38:17;12.40;99.90
16174;DHT22;14031;50.158;8.626;2023-10-31T06:40:45;12.40;99.90
16174;DHT22;14031;50.158;8.626;2023-10-31T06:43:12;12.40;99.90
16174;DHT22;14031;50.158;8.626;2023-10-31T06:45:38;12.40;99.90
16174;DHT22;14031;50.158;8.626;2023-10-31T06:48:05;12.40;99.90
16174;DHT22;14031;50.158;8.626;2023-10-31T06:50:34;12.40;99.90
16174;DHT22;14031;50.158;8.626;2023-10-31T06:53:03;12.40;99.90
16174;DHT22;14031;50.158;8.626;2023-10-31T06:55:30;12.40;99.90
16174;DHT22;14031;50.158;8.626;2023-10-31T06:57:58;12.40;99.90
16174;DHT22;14031;50.158;8.626;2023-10-31T07:00:25;12.40;99.90
16174;DHT22;14031;50.158;8.626;2023-10-31T07:02:52;12.40;99.90
16174;DHT22;14031;50.158;8.626;2023-10-31T07:05:18;12.40;99.90
16174;DHT22;14031;50.158;8.626;2023-10-31T07:07:46;12.40;99.90
16174;DHT22;14031;50.158;8.626;2023-10-31T07:10:13;12.40;99.90
16174;DHT22;14031;50.158;8.626;2023-10-31T07:12:40;12.40;99.90
16174;DHT22;14031;50.158;8.626;2023-10-31T07:15:09;12.40;99.90
16174;DHT22;14031;50.158;8.626;2023-10-31T07:17:36;12.40;99.90
16174;DHT22;14031;50.158;8.626;2023-10-31T07:20:04;12.40;99.90
16174;DHT22;14031;50.158;8.626;2023-10-31T07:22:31;12.40;99.90
16174;DHT22;14031;50.158;8.626;2023-10-31T07:24:58;12.40;99.90
16174;DHT22;14031;50.158;8.626;2023-10-31T07:27:28;12.50;99.90
16174;DHT22;14031;50.158;8.626;2023-10-31T07:29:55;12.40;99.90
16174;DHT22;14031;50.158;8.626;2023-10-31T07:32:23;12.40;99.90
16174;DHT22;14031;50.158;8.626;2023-10-31T07:34:50;12.40;99.90
16174;DHT22;14031;50.158;8.626;2023-10-31T07:37:17;12.50;99.90
16174;DHT22;14031;50.158;8.626;2023-10-31T07:39:44;12.60;99.90
16174;DHT22;14031;50.158;8.626;2023-10-31T07:42:10;12.50;99.90
16174;DHT22;14031;50.158;8.626;2023-10-31T07:44:37;12.50;99.90
16174;DHT22;14031;50.158;8.626;2023-10-31T07:47:04;12.50;99.90
16174;DHT22;14031;50.158;8.626;2023-10-31T07:49:32;12.60;99.90
16174;DHT22;14031;50.158;8.626;2023-10-31T07:51:59;12.40;99.90
16174;DHT22;14031;50.158;8.626;2023-10-31T07:54:26;12.60;99.90
16174;DHT22;14031;50.158;8.626;2023-10-31T07:56:53;12.50;99.90
16174;DHT22;14031;50.158;8.626;2023-10-31T07:59:20;12.50;99.90
16174;DHT22;14031;50.158;8.626;2023-10-31T08:01:47;12.50;99.90
16174;DHT22;14031;50.158;8.626;2023-10-31T08:04:16;12.50;99.90
16174;DHT22;14031;50.158;8.626;2023-10-31T08:06:44;12.50;99.90
16174;DHT22;14031;50.158;8.626;2023-10-31T08:09:11;12.50;99.90
16174;DHT22;14031;50.158;8.626;2023-10-31T08:11:38;12.50;99.90
16174;DHT22;14031;50.158;8.626;2023-10-31T08:14:04;12.50;99.90
16174;DHT22;14031;50.158;8.626;2023-10-31T08:16:31;12.50;99.90
16174;DHT22;14031;50.158;8.626;2023-10-31T08:18:58;12.30;99.90
16174;DHT22;14031;50.158;8.626;2023-10-31T08:21:25;12.50;99.90
16174;DHT22;14031;50.158;8.626;2023-10-31T08:23:55;12.60;99.90
16174;DHT22;14031;50.158;8.626;2023-10-31T08:26:21;12.60;99.90
16174;DHT22;14031;50.158;8.626;2023-10-31T08:28:48;12.60;99.90
16174;DHT22;14031;50.158;8.626;2023-10-31T08:31:17;12.60;99.90
16174;DHT22;14031;50.158;8.626;2023-10-31T08:33:43;12.60;99.90
16174;DHT22;14031;50.158;8.626;2023-10-31T08:36:10;12.70;99.90
16174;DHT22;14031;50.158;8.626;2023-10-31T08:38:37;12.70;99.90
16174;DHT22;14031;50.158;8.626;2023-10-31T08:41:05;12.70;99.90
16174;DHT22;14031;50.158;8.626;2023-10-31T08:43:32;12.70;99.90
16174;DHT22;14031;50.158;8.626;2023-10-31T08:45:59;12.80;99.90
16174;DHT22;14031;50.158;8.626;2023-10-31T08:48:26;12.80;99.90
16174;DHT22;14031;50.158;8.626;2023-10-31T08:50:53;12.80;99.90
16174;DHT22;14031;50.158;8.626;2023-10-31T08:53:20;12.90;99.90
16174;DHT22;14031;50.158;8.626;2023-10-31T08:55:46;12.90;99.90
16174;DHT22;14031;50.158;8.626;2023-10-31T08:58:14;13.10;99.90
16174;DHT22;14031;50.158;8.626;2023-10-31T09:00:43;13.10;99.90
16174;DHT22;14031;50.158;8.626;2023-10-31T09:03:10;13.10;99.90
16174;DHT22;14031;50.158;8.626;2023-10-31T09:05:37;13.20;99.90
16174;DHT22;14031;50.158;8.626;2023-10-31T09:08:04;13.20;99.90
16174;DHT22;14031;50.158;8.626;2023-10-31T09:10:32;13.30;99.90
16174;DHT22;14031;50.158;8.626;2023-10-31T09:12:59;13.40;99.90
16174;DHT22;14031;50.158;8.626;2023-10-31T09:15:27;13.40;99.90
16174;DHT22;14031;50.158;8.626;2023-10-31T09:17:54;13.50;99.90
16174;DHT22;14031;50.158;8.626;2023-10-31T09:20:21;13.60;99.90
16174;DHT22;14031;50.158;8.626;2023-10-31T09:22:47;13.60;99.90
16174;DHT22;14031;50.158;8.626;2023-10-31T09:25:14;13.60;99.90
16174;DHT22;14031;50.158;8.626;2023-10-31T09:27:41;13.60;99.90
16174;DHT22;14031;50.158;8.626;2023-10-31T09:30:08;13.70;99.90
16174;DHT22;14031;50.158;8.626;2023-10-31T09:32:36;13.60;99.90
16174;DHT22;14031;50.158;8.626;2023-10-31T09:35:04;13.70;99.90
16174;DHT22;14031;50.158;8.626;2023-10-31T09:37:31;13.70;99.90
16174;DHT22;14031;50.158;8.626;2023-10-31T09:39:57;13.80;99.90
16174;DHT22;14031;50.158;8.626;2023-10-31T09:42:24;13.80;99.90
16174;DHT22;14031;50.158;8.626;2023-10-31T09:44:52;13.90;99.90
16174;DHT22;14031;50.158;8.626;2023-10-31T09:47:20;13.90;99.90
16174;DHT22;14031;50.158;8.626;2023-10-31T09:49:49;13.90;99.90
16174;DHT22;14031;50.158;8.626;2023-10-31T09:52:17;13.90;99.90
16174;DHT22;14031;50.158;8.626;2023-10-31T09:54:46;13.90;99.90
16174;DHT22;14031;50.158;8.626;2023-10-31T09:57:14;13.90;99.90
16174;DHT22;14031;50.158;8.626;2023-10-31T09:59:42;14.00;99.90
16174;DHT22;14031;50.158;8.626;2023-10-31T10:02:09;14.10;99.90
16174;DHT22;14031;50.158;8.626;2023-10-31T10:04:36;14.10;99.90
16174;DHT22;14031;50.158;8.626;2023-10-31T10:07:05;14.20;99.90
16174;DHT22;14031;50.158;8.626;2023-10-31T10:09:32;14.20;99.90
16174;DHT22;14031;50.158;8.626;2023-10-31T10:11:59;14.20;99.90
16174;DHT22;14031;50.158;8.626;2023-10-31T10:14:26;14.30;99.90
16174;DHT22;14031;50.158;8.626;2023-10-31T10:16:54;14.30;99.90
16174;DHT22;14031;50.158;8.626;2023-10-31T10:19:22;14.30;99.90
16174;DHT22;14031;50.158;8.626;2023-10-31T10:21:50;14.30;99.90
16174;DHT22;14031;50.158;8.626;2023-10-31T10:24:19;14.30;99.90
16174;DHT22;14031;50.158;8.626;2023-10-31T10:26:47;14.20;99.90
16174;DHT22;14031;50.158;8.626;2023-10-31T10:29:14;14.20;99.90
16174;DHT22;14031;50.158;8.626;2023-10-31T10:31:41;14.30;99.90
16174;DHT22;14031;50.158;8.626;2023-10-31T10:34:08;14.20;99.90
16174;DHT22;14031;50.158;8.626;2023-10-31T10:36:34;14.30;99.90
16174;DHT22;14031;50.158;8.626;2023-10-31T10:39:02;14.30;99.90
16174;DHT22;14031;50.158;8.626;2023-10-31T10:41:34;14.40;99.90
16174;DHT22;14031;50.158;8.626;2023-10-31T10:44:04;14.50;99.90
16174;DHT22;14031;50.158;8.626;2023-10-31T10:46:33;14.50;99.90
16174;DHT22;14031;50.158;8.626;2023-10-31T10:49:04;14.60;99.90
16174;DHT22;14031;50.158;8.626;2023-10-31T10:51:41;14.60;99.90
16174;DHT22;14031;50.158;8.626;2023-10-31T10:54:15;14.60;99.90
16174;DHT22;14031;50.158;8.626;2023-10-31T10:56:46;14.60;99.90
16174;DHT22;14031;50.158;8.626;2023-10-31T10:59:20;14.70;99.90
16174;DHT22;14031;50.158;8.626;2023-10-31T11:01:47;14.70;99.90
16174;DHT22;14031;50.158;8.626;2023-10-31T11:04:15;14.80;99.90
16174;DHT22;14031;50.158;8.626;2023-10-31T11:06:43;14.80;99.90
16174;DHT22;14031;50.158;8.626;2023-10-31T11:09:11;14.80;99.90
16174;DHT22;14031;50.158;8.626;2023-10-31T11:11:40;14.80;99.90
16174;DHT22;14031;50.158;8.626;2023-10-31T11:14:15;14.80;99.90
16174;DHT22;14031;50.158;8.626;2023-10-31T11:16:45;14.80;99.90
16174;DHT22;14031;50.158;8.626;2023-10-31T11:19:15;14.80;99.90
16174;DHT22;14031;50.158;8.626;2023-10-31T11:21:53;14.70;99.90
16174;DHT22;14031;50.158;8.626;2023-10-31T11:24:20;14.70;99.90
16174;DHT22;14031;50.158;8.626;2023-10-31T11:26:51;14.70;99.90
16174;DHT22;14031;50.158;8.626;2023-10-31T11:29:19;14.70;99.90
16174;DHT22;14031;50.158;8.626;2023-10-31T11:31:47;14.90;99.90
16174;DHT22;14031;50.158;8.626;2023-10-31T11:34:16;14.90;99.90
16174;DHT22;14031;50.158;8.626;2023-10-31T11:36:44;14.90;99.90
16174;DHT22;14031;50.158;8.626;2023-10-31T11:39:13;15.00;99.90
16174;DHT22;14031;50.158;8.626;2023-10-31T11:41:40;15.00;99.90
16174;DHT22;14031;50.158;8.626;2023-10-31T11:44:12;15.10;99.90
16174;DHT22;14031;50.158;8.626;2023-10-31T11:46:40;15.10;99.90
16174;DHT22;14031;50.158;8.626;2023-10-31T11:49:07;15.10;99.90
16174;DHT22;14031;50.158;8.626;2023-10-31T11:51:34;15.10;99.90
16174;DHT22;14031;50.158;8.626;2023-10-31T11:54:02;15.00;99.90
16174;DHT22;14031;50.158;8.626;2023-10-31T11:56:29;15.00;99.90
16174;DHT22;14031;50.158;8.626;2023-10-31T11:58:58;15.10;99.90
16174;DHT22;14031;50.158;8.626;2023-10-31T12:01:25;15.20;99.90
16174;DHT22;14031;50.158;8.626;2023-10-31T12:03:53;15.20;99.90
16174;DHT22;14031;50.158;8.626;2023-10-31T12:06:20;15.20;99.90
16174;DHT22;14031;50.158;8.626;2023-10-31T12:08:47;15.30;99.90
16174;DHT22;14031;50.158;8.626;2023-10-31T12:11:15;15.30;99.90
16174;DHT22;14031;50.158;8.626;2023-10-31T12:13:52;15.30;99.90
16174;DHT22;14031;50.158;8.626;2023-10-31T12:16:22;15.40;99.90
16174;DHT22;14031;50.158;8.626;2023-10-31T12:18:55;15.30;99.90
16174;DHT22;14031;50.158;8.626;2023-10-31T12:21:36;15.30;99.90
16174;DHT22;14031;50.158;8.626;2023-10-31T12:24:04;15.30;99.90
16174;DHT22;14031;50.158;8.626;2023-10-31T12:26:32;15.20;99.90
16174;DHT22;14031;50.158;8.626;2023-10-31T12:29:10;15.20;99.90
16174;DHT22;14031;50.158;8.626;2023-10-31T12:31:42;15.20;99.90
16174;DHT22;14031;50.158;8.626;2023-10-31T12:34:11;15.20;99.90
16174;DHT22;14031;50.158;8.626;2023-10-31T12:36:39;15.10;99.90
16174;DHT22;14031;50.158;8.626;2023-10-31T12:39:09;15.10;99.90
16174;DHT22;14031;50.158;8.626;2023-10-31T12:41:37;15.00;99.90
16174;DHT22;14031;50.158;8.626;2023-10-31T12:44:05;15.00;99.90
16174;DHT22;14031;50.158;8.626;2023-10-31T12:46:33;15.00;99.90
16174;DHT22;14031;50.158;8.626;2023-10-31T12:49:00;15.00;99.90
16174;DHT22;14031;50.158;8.626;2023-10-31T12:51:28;15.00;99.90
16174;DHT22;14031;50.158;8.626;2023-10-31T12:53:55;15.10;99.90
16174;DHT22;14031;50.158;8.626;2023-10-31T12:56:37;15.20;99.90
16174;DHT22;14031;50.158;8.626;2023-10-31T12:59:05;15.30;99.90
16174;DHT22;14031;50.158;8.626;2023-10-31T13:01:33;15.30;99.90
16174;DHT22;14031;50.158;8.626;2023-10-31T13:04:00;15.40;99.90
16174;DHT22;14031;50.158;8.626;2023-10-31T13:06:28;15.50;99.90
16174;DHT22;14031;50.158;8.626;2023-10-31T13:08:55;15.50;99.90
16174;DHT22;14031;50.158;8.626;2023-10-31T13:11:22;15.50;99.90
16174;DHT22;14031;50.158;8.626;2023-10-31T13:13:51;15.60;99.90
16174;DHT22;14031;50.158;8.626;2023-10-31T13:16:18;15.60;99.90
16174;DHT22;14031;50.158;8.626;2023-10-31T13:18:45;15.60;99.90
16174;DHT22;14031;50.158;8.626;2023-10-31T13:21:12;15.50;99.90
16174;DHT22;14031;50.158;8.626;2023-10-31T13:23:41;15.30;99.90
16174;DHT22;14031;50.158;8.626;2023-10-31T13:26:11;15.30;99.90
16174;DHT22;14031;50.158;8.626;2023-10-31T13:28:38;15.20;99.90
16174;DHT22;14031;50.158;8.626;2023-10-31T13:31:06;15.20;99.90
16174;DHT22;14031;50.158;8.626;2023-10-31T13:33:33;15.20;99.90
16174;DHT22;14031;50.158;8.626;2023-10-31T13:36:00;15.20;99.90
16174;DHT22;14031;50.158;8.626;2023-10-31T13:38:27;15.20;99.90
16174;DHT22;14031;50.158;8.626;2023-10-31T13:40:55;15.20;99.90
16174;DHT22;14031;50.158;8.626;2023-10-31T13:43:22;15.30;99.90
16174;DHT22;14031;50.158;8.626;2023-10-31T13:45:49;15.40;99.90
16174;DHT22;14031;50.158;8.626;2023-10-31T13:48:16;15.40;99.90
16174;DHT22;14031;50.158;8.626;2023-10-31T13:50:44;15.50;99.90
16174;DHT22;14031;50.158;8.626;2023-10-31T13:53:11;15.50;99.90
16174;DHT22;14031;50.158;8.626;2023-10-31T13:55:38;15.40;99.90
16174;DHT22;14031;50.158;8.626;2023-10-31T13:58:06;15.40;99.90
16174;DHT22;14031;50.158;8.626;2023-10-31T14:00:33;15.30;99.90
16174;DHT22;14031;50.158;8.626;2023-10-31T14:03:00;15.30;99.90
16174;DHT22;14031;50.158;8.626;2023-10-31T14:05:27;15.50;99.90
16174;DHT22;14031;50.158;8.626;2023-10-31T14:07:54;15.80;99.90
16174;DHT22;14031;50.158;8.626;2023-10-31T14:10:21;16.00;99.90
16174;DHT22;14031;50.158;8.626;2023-10-31T14:12:48;16.20;99.90
16174;DHT22;14031;50.158;8.626;2023-10-31T14:15:17;16.60;99.90
16174;DHT22;14031;50.158;8.626;2023-10-31T14:17:44;16.90;99.90
16174;DHT22;14031;50.158;8.626;2023-10-31T14:20:11;17.10;99.90
16174;DHT22;14031;50.158;8.626;2023-10-31T14:22:38;17.30;99.90
16174;DHT22;14031;50.158;8.626;2023-10-31T14:25:05;17.40;99.90
16174;DHT22;14031;50.158;8.626;2023-10-31T14:27:33;17.50;99.90
16174;DHT22;14031;50.158;8.626;2023-10-31T14:30:00;17.50;99.90
16174;DHT22;14031;50.158;8.626;2023-10-31T14:32:28;17.40;99.90
16174;DHT22;14031;50.158;8.626;2023-10-31T14:34:55;17.10;99.90
16174;DHT22;14031;50.158;8.626;2023-10-31T14:37:21;16.90;99.90
16174;DHT22;14031;50.158;8.626;2023-10-31T14:39:48;16.60;99.90
16174;DHT22;14031;50.158;8.626;2023-10-31T14:42:15;16.40;99.90
16174;DHT22;14031;50.158;8.626;2023-10-31T14:44:42;16.30;99.90
16174;DHT22;14031;50.158;8.626;2023-10-31T14:47:09;16.10;99.90
16174;DHT22;14031;50.158;8.626;2023-10-31T14:49:37;16.00;99.90
16174;DHT22;14031;50.158;8.626;2023-10-31T14:52:04;15.90;99.90
16174;DHT22;14031;50.158;8.626;2023-10-31T14:54:33;15.80;99.90
16174;DHT22;14031;50.158;8.626;2023-10-31T14:57:01;15.70;99.90
16174;DHT22;14031;50.158;8.626;2023-10-31T14:59:28;15.70;99.90
16174;DHT22;14031;50.158;8.626;2023-10-31T15:01:54;15.60;99.90
16174;DHT22;14031;50.158;8.626;2023-10-31T15:04:21;15.60;99.90
16174;DHT22;14031;50.158;8.626;2023-10-31T15:06:49;15.50;99.90
16174;DHT22;14031;50.158;8.626;2023-10-31T15:09:16;15.40;99.90
16174;DHT22;14031;50.158;8.626;2023-10-31T15:11:44;15.40;99.90
16174;DHT22;14031;50.158;8.626;2023-10-31T15:14:11;15.40;99.90
16174;DHT22;14031;50.158;8.626;2023-10-31T15:16:38;15.30;99.90
16174;DHT22;14031;50.158;8.626;2023-10-31T15:19:05;15.20;99.90
16174;DHT22;14031;50.158;8.626;2023-10-31T15:21:32;15.20;99.90
16174;DHT22;14031;50.158;8.626;2023-10-31T15:24:00;15.10;99.90
16174;DHT22;14031;50.158;8.626;2023-10-31T15:26:27;15.10;99.90
16174;DHT22;14031;50.158;8.626;2023-10-31T15:28:55;15.10;99.90
16174;DHT22;14031;50.158;8.626;2023-10-31T15:31:22;15.10;99.90